createdAt,value
2024-01-04T00:00:56.771Z,0.30
2024-01-04T00:03:27.221Z,0.30
2024-01-04T00:05:55.980Z,0.20
2024-01-04T00:08:24.381Z,0.20
2024-01-04T00:10:54.085Z,0.10
2024-01-04T00:13:22.489Z,0.28
2024-01-04T00:15:50.889Z,0.10
2024-01-04T00:18:19.461Z,0.20
2024-01-04T00:20:47.979Z,0.20
2024-01-04T00:23:16.398Z,0.20
2024-01-04T00:25:44.882Z,0.10
2024-01-04T00:28:14.697Z,0.20
2024-01-04T00:30:43.114Z,0.20
2024-01-04T00:33:11.743Z,0.10
2024-01-04T00:35:40.225Z,0.20
2024-01-04T00:38:09.098Z,0.10
2024-01-04T00:40:40.290Z,0.20
2024-01-04T00:43:08.727Z,0.20
2024-01-04T00:45:38.413Z,0.20
2024-01-04T00:48:07.824Z,0.10
2024-01-04T00:50:36.522Z,0.10
2024-01-04T00:53:09.783Z,0.15
2024-01-04T00:55:39.167Z,0.10
2024-01-04T00:58:07.652Z,0.20
2024-01-04T01:00:36.218Z,0.20
2024-01-04T01:03:07.442Z,0.28
2024-01-04T01:05:35.993Z,0.15
2024-01-04T01:08:04.476Z,0.20
2024-01-04T01:10:33.498Z,0.17
2024-01-04T01:13:02.002Z,0.10
2024-01-04T01:15:30.463Z,0.20
2024-01-04T01:17:59.099Z,0.30
2024-01-04T01:20:28.917Z,0.30
2024-01-04T01:22:57.301Z,0.20
2024-01-04T01:25:25.647Z,0.35
2024-01-04T01:27:54.032Z,0.10
2024-01-04T01:30:22.551Z,0.20
2024-01-04T01:32:51.064Z,0.10
2024-01-04T01:35:20.842Z,0.20
2024-01-04T01:37:50.669Z,0.20
2024-01-04T01:40:19.247Z,0.30
2024-01-04T01:42:51.056Z,0.20
2024-01-04T01:45:19.844Z,0.20
2024-01-04T01:47:49.494Z,0.20
2024-01-04T01:50:19.818Z,0.30
2024-01-04T01:52:50.099Z,0.20
2024-01-04T01:55:18.911Z,0.45
2024-01-04T01:57:47.756Z,0.20
2024-01-04T02:00:17.262Z,0.30
2024-01-04T02:02:47.219Z,0.20
2024-01-04T02:05:15.842Z,0.17
2024-01-04T02:07:45.604Z,0.30
2024-01-04T02:10:15.418Z,0.30
2024-01-04T02:12:43.958Z,0.20
2024-01-04T02:15:12.719Z,0.30
2024-01-04T02:17:41.947Z,0.20
2024-01-04T02:20:13.335Z,0.30
2024-01-04T02:22:46.335Z,0.20
2024-01-04T02:25:14.687Z,0.20
2024-01-04T02:27:43.067Z,0.20
2024-01-04T02:30:13.282Z,0.30
2024-01-04T02:32:42.210Z,0.20
2024-01-04T02:35:10.802Z,0.13
2024-01-04T02:37:39.190Z,0.30
2024-01-04T02:40:10.532Z,0.20
2024-01-04T02:42:38.941Z,0.20
2024-01-04T02:45:08.261Z,0.30
2024-01-04T02:47:38.040Z,0.30
2024-01-04T02:50:07.372Z,0.20
2024-01-04T02:52:35.852Z,0.20
2024-01-04T02:55:04.491Z,0.28
2024-01-04T02:57:34.231Z,0.20
2024-01-04T03:00:02.779Z,0.20
2024-01-04T03:02:31.267Z,0.10
2024-01-04T03:04:59.651Z,0.30
2024-01-04T03:07:28.046Z,0.22
2024-01-04T03:09:57.540Z,0.30
2024-01-04T03:12:25.996Z,0.35
2024-01-04T03:14:55.906Z,0.22
2024-01-04T03:17:24.404Z,0.40
2024-01-04T03:19:52.897Z,0.20
2024-01-04T03:22:21.319Z,0.20
2024-01-04T03:24:49.913Z,0.30
2024-01-04T03:27:18.863Z,0.20
2024-01-04T03:29:47.248Z,0.30
2024-01-04T03:32:17.005Z,0.20
2024-01-04T03:34:45.538Z,0.30
2024-01-04T03:37:14.087Z,0.22
2024-01-04T03:39:42.439Z,0.20
2024-01-04T03:42:10.896Z,0.13
2024-01-04T03:44:39.376Z,0.20
2024-01-04T03:47:07.857Z,0.28
2024-01-04T03:49:37.597Z,0.20
2024-01-04T03:52:06.364Z,0.30
2024-01-04T03:54:34.850Z,0.20
2024-01-04T03:57:03.280Z,0.30
2024-01-04T03:59:31.681Z,0.20
2024-01-04T04:02:00.116Z,0.20
2024-01-04T04:04:28.477Z,0.25
2024-01-04T04:06:58.216Z,0.30
2024-01-04T04:09:27.163Z,0.22
2024-01-04T04:11:55.635Z,0.20
2024-01-04T04:14:24.333Z,0.30
2024-01-04T04:16:52.716Z,0.25
2024-01-04T04:19:21.496Z,0.20
2024-01-04T04:21:49.972Z,0.20
2024-01-04T04:24:19.745Z,0.20
2024-01-04T04:26:48.228Z,0.25
2024-01-04T04:29:16.688Z,0.13
2024-01-04T04:31:45.203Z,0.20
2024-01-04T04:34:13.734Z,0.20
2024-01-04T04:36:42.297Z,0.30
2024-01-04T04:39:10.799Z,0.30
2024-01-04T04:41:41.655Z,0.20
2024-01-04T04:44:10.075Z,0.10
2024-01-04T04:46:38.432Z,0.10
2024-01-04T04:49:08.677Z,0.20
2024-01-04T04:51:37.149Z,0.20
2024-01-04T04:54:05.693Z,0.10
2024-01-04T04:56:34.278Z,0.17
2024-01-04T04:59:06.318Z,0.30
2024-01-04T05:01:34.732Z,0.30
2024-01-04T05:04:03.391Z,0.13
2024-01-04T05:06:31.906Z,0.10
2024-01-04T05:09:00.563Z,0.30
2024-01-04T05:11:29.070Z,0.30
2024-01-04T05:13:57.520Z,0.20
2024-01-04T05:16:27.326Z,0.20
2024-01-04T05:18:55.908Z,0.13
2024-01-04T05:21:24.428Z,0.15
2024-01-04T05:23:52.916Z,0.20
2024-01-04T05:26:24.639Z,0.20
2024-01-04T05:28:53.061Z,0.10
2024-01-04T05:31:22.685Z,0.10
2024-01-04T05:33:52.591Z,0.32
2024-01-04T05:36:21.811Z,0.20
2024-01-04T05:38:50.490Z,0.28
2024-01-04T05:41:19.756Z,0.20
2024-01-04T05:43:48.105Z,0.17
2024-01-04T05:46:17.560Z,0.10
2024-01-04T05:48:46.335Z,0.20
2024-01-04T05:51:16.487Z,0.10
2024-01-04T05:53:45.025Z,0.20
2024-01-04T05:56:13.530Z,0.30
2024-01-04T05:58:41.938Z,0.20
2024-01-04T06:01:10.413Z,0.28
2024-01-04T06:03:39.061Z,0.28
2024-01-04T06:06:07.974Z,0.10
2024-01-04T06:08:37.839Z,0.13
2024-01-04T06:11:07.545Z,0.10
2024-01-04T06:13:35.946Z,0.20
2024-01-04T06:16:07.367Z,0.17
2024-01-04T06:18:36.176Z,0.10
2024-01-04T06:21:06.278Z,0.20
2024-01-04T06:23:34.727Z,0.20
2024-01-04T06:26:04.715Z,0.10
2024-01-04T06:28:33.069Z,0.10
2024-01-04T06:31:01.739Z,0.08
2024-01-04T06:33:30.314Z,0.13
2024-01-04T06:35:59.410Z,0.10
2024-01-04T06:38:27.858Z,0.20
2024-01-04T06:40:58.832Z,0.20
2024-01-04T06:43:29.085Z,0.10
2024-01-04T06:45:57.448Z,0.10
2024-01-04T06:48:26.659Z,0.20
2024-01-04T06:50:55.348Z,0.13
2024-01-04T06:53:23.890Z,0.10
2024-01-04T06:55:52.404Z,0.10
2024-01-04T06:58:21.316Z,0.13
2024-01-04T07:00:51.125Z,0.10
2024-01-04T07:03:21.283Z,0.20
2024-01-04T07:05:50.421Z,0.10
2024-01-04T07:08:18.978Z,0.20
2024-01-04T07:10:47.964Z,0.10
2024-01-04T07:13:16.447Z,0.10
2024-01-04T07:15:44.994Z,0.10
2024-01-04T07:18:14.976Z,0.15
2024-01-04T07:20:43.604Z,0.20
2024-01-04T07:23:12.168Z,0.30
2024-01-04T07:25:42.063Z,0.20
2024-01-04T07:28:10.707Z,0.20
2024-01-04T07:30:40.341Z,0.20
2024-01-04T07:33:09.087Z,0.17
2024-01-04T07:35:39.211Z,0.20
2024-01-04T07:38:07.861Z,0.20
2024-01-04T07:40:36.590Z,0.10
2024-01-04T07:43:06.026Z,0.10
2024-01-04T07:45:36.545Z,0.10
2024-01-04T07:48:06.079Z,0.20
2024-01-04T07:50:35.075Z,0.20
2024-01-04T07:53:05.108Z,0.10
2024-01-04T07:55:34.122Z,0.10
2024-01-04T07:58:04.153Z,0.30
2024-01-04T08:00:32.855Z,0.10
2024-01-04T08:03:01.568Z,0.10
2024-01-04T08:05:30.476Z,0.28
2024-01-04T08:07:59.028Z,0.20
2024-01-04T08:10:29.077Z,0.30
2024-01-04T08:12:57.741Z,0.15
2024-01-04T08:15:26.225Z,0.10
2024-01-04T08:17:55.146Z,0.20
2024-01-04T08:20:27.358Z,0.20
2024-01-04T08:22:56.508Z,0.15
2024-01-04T08:25:25.231Z,0.10
2024-01-04T08:27:55.732Z,0.20
2024-01-04T08:30:24.656Z,0.13
2024-01-04T08:32:54.249Z,0.20
2024-01-04T08:35:22.896Z,0.20
2024-01-04T08:37:51.355Z,0.20
2024-01-04T08:40:20.043Z,0.20
2024-01-04T08:42:48.650Z,0.20
2024-01-04T08:45:18.648Z,0.10
2024-01-04T08:47:47.392Z,0.20
2024-01-04T08:50:16.048Z,0.20
2024-01-04T08:52:44.619Z,0.30
2024-01-04T08:55:13.098Z,0.20
2024-01-04T08:57:41.721Z,0.30
2024-01-04T09:00:12.642Z,0.80
2024-01-04T09:02:42.686Z,0.90
2024-01-04T09:05:11.523Z,0.77
2024-01-04T09:07:40.196Z,0.40
2024-01-04T09:10:10.355Z,0.40
2024-01-04T09:12:40.912Z,0.28
2024-01-04T09:15:10.864Z,0.30
2024-01-04T09:17:39.410Z,0.30
2024-01-04T09:20:10.138Z,0.20
2024-01-04T09:22:38.683Z,0.30
2024-01-04T09:25:08.667Z,0.30
2024-01-04T09:27:37.146Z,0.40
2024-01-04T09:30:06.720Z,0.40
2024-01-04T09:32:35.366Z,0.20
2024-01-04T09:35:03.928Z,0.30
2024-01-04T09:37:33.969Z,0.35
2024-01-04T09:40:04.768Z,0.40
2024-01-04T09:42:39.372Z,0.40
2024-01-04T09:45:12.572Z,0.38
2024-01-04T09:47:43.177Z,0.22
2024-01-04T09:50:12.977Z,0.40
2024-01-04T09:52:46.530Z,0.40
2024-01-04T09:55:15.231Z,0.35
2024-01-04T09:57:43.775Z,0.30
2024-01-04T10:00:14.027Z,0.35
2024-01-04T10:02:44.382Z,0.32
2024-01-04T10:05:16.256Z,0.40
2024-01-04T10:08:06.506Z,0.30
2024-01-04T10:10:37.966Z,0.40
2024-01-04T10:13:07.641Z,0.55
2024-01-04T10:15:37.917Z,0.60
2024-01-04T10:18:09.467Z,0.50
2024-01-04T10:20:38.458Z,0.40
2024-01-04T10:23:12.495Z,0.50
2024-01-04T10:25:41.409Z,0.50
2024-01-04T10:28:14.037Z,0.40
2024-01-04T10:30:44.383Z,0.57
2024-01-04T10:33:13.172Z,0.45
2024-01-04T10:35:41.730Z,0.50
2024-01-04T10:38:11.531Z,0.50
2024-01-04T10:40:40.205Z,0.50
2024-01-04T10:43:09.023Z,0.50
2024-01-04T10:45:37.488Z,0.68
2024-01-04T10:48:07.524Z,0.60
2024-01-04T10:50:37.070Z,0.80
2024-01-04T10:53:07.791Z,0.60
2024-01-04T10:55:38.632Z,0.57
2024-01-04T10:58:07.387Z,0.60
2024-01-04T11:00:36.582Z,0.40
2024-01-04T11:03:11.009Z,0.50
2024-01-04T11:05:42.633Z,0.50
2024-01-04T11:08:12.956Z,0.40
2024-01-04T11:10:43.463Z,0.40
2024-01-04T11:13:12.394Z,0.35
2024-01-04T11:15:41.444Z,0.50
2024-01-04T11:18:26.568Z,0.45
2024-01-04T11:21:13.781Z,0.30
2024-01-04T11:24:00.676Z,0.50
2024-01-04T11:26:40.905Z,0.50
2024-01-04T11:29:11.767Z,0.77
2024-01-04T11:31:45.066Z,0.50
2024-01-04T11:34:15.808Z,0.50
2024-01-04T11:36:44.875Z,0.40
2024-01-04T11:39:13.460Z,0.47
2024-01-04T11:41:43.432Z,0.50
2024-01-04T11:44:18.552Z,0.30
2024-01-04T11:46:47.459Z,0.30
2024-01-04T11:49:17.104Z,0.40
2024-01-04T11:51:47.783Z,0.43
2024-01-04T11:54:18.447Z,0.40
2024-01-04T11:56:49.300Z,0.40
2024-01-04T11:59:19.818Z,0.35
2024-01-04T12:01:49.358Z,0.52
2024-01-04T12:04:19.237Z,0.55
2024-01-04T12:06:50.963Z,0.38
2024-01-04T12:09:20.072Z,0.40
2024-01-04T12:11:58.359Z,0.32
2024-01-04T12:14:27.933Z,0.50
2024-01-04T12:16:58.390Z,0.38
2024-01-04T12:19:26.999Z,0.50
2024-01-04T12:21:56.369Z,0.30
2024-01-04T12:24:25.628Z,0.35
2024-01-04T12:26:56.256Z,0.70
2024-01-04T12:29:24.917Z,0.90
2024-01-04T12:31:53.616Z,0.50
2024-01-04T12:34:24.239Z,0.30
2024-01-04T12:36:53.017Z,0.40
2024-01-04T12:39:21.829Z,0.30
2024-01-04T12:41:51.053Z,0.30
2024-01-04T12:44:22.892Z,0.20
2024-01-04T12:46:51.403Z,0.40
2024-01-04T12:49:22.493Z,0.20
2024-01-04T12:51:53.622Z,0.30
2024-01-04T12:54:22.126Z,0.30
2024-01-04T12:56:55.778Z,0.30
2024-01-04T12:59:25.836Z,0.30
2024-01-04T13:01:54.332Z,0.30
2024-01-04T13:04:22.847Z,0.40
2024-01-04T13:06:51.492Z,0.20
2024-01-04T13:09:20.171Z,0.30
2024-01-04T13:11:48.824Z,0.30
2024-01-04T13:14:17.278Z,0.30
2024-01-04T13:16:48.814Z,0.20
2024-01-04T13:19:17.784Z,0.30
2024-01-04T13:21:46.946Z,0.20
2024-01-04T13:24:15.595Z,0.40
2024-01-04T13:26:45.184Z,0.20
2024-01-04T13:29:16.084Z,0.30
2024-01-04T13:31:44.935Z,0.20
2024-01-04T13:34:14.957Z,0.30
2024-01-04T13:36:43.829Z,0.30
2024-01-04T13:39:12.752Z,0.20
2024-01-04T13:41:46.104Z,0.40
2024-01-04T13:44:15.006Z,0.20
2024-01-04T13:46:45.398Z,0.25
2024-01-04T13:49:15.283Z,0.30
2024-01-04T13:51:45.780Z,0.38
2024-01-04T13:54:14.814Z,0.30
2024-01-04T13:56:44.101Z,0.30
2024-01-04T13:59:13.070Z,0.20
2024-01-04T14:01:41.776Z,0.20
2024-01-04T14:04:10.492Z,0.30
2024-01-04T14:06:40.768Z,0.20
2024-01-04T14:09:10.181Z,0.30
2024-01-04T14:11:38.700Z,0.25
2024-01-04T14:14:09.135Z,0.40
2024-01-04T14:16:38.272Z,0.30
2024-01-04T14:19:07.483Z,0.20
2024-01-04T14:21:36.030Z,0.30
2024-01-04T14:24:06.761Z,0.30
2024-01-04T14:26:35.399Z,1.17
2024-01-04T14:29:04.862Z,0.60
2024-01-04T14:31:33.504Z,0.35
2024-01-04T14:34:02.168Z,0.35
2024-01-04T14:36:30.884Z,0.50
2024-01-04T14:39:00.449Z,0.38
2024-01-04T14:41:30.621Z,0.40
2024-01-04T14:43:59.062Z,0.38
2024-01-04T14:46:28.435Z,0.28
2024-01-04T14:48:57.137Z,0.30
2024-01-04T14:51:27.548Z,0.22
2024-01-04T14:53:56.270Z,0.20
2024-01-04T14:56:25.108Z,0.40
2024-01-04T14:58:56.137Z,0.20
2024-01-04T15:01:24.891Z,0.20
2024-01-04T15:03:55.397Z,0.30
2024-01-04T15:06:24.137Z,0.20
2024-01-04T15:08:54.036Z,0.30
2024-01-04T15:11:23.897Z,0.30
2024-01-04T15:13:54.348Z,0.30
2024-01-04T15:16:22.988Z,0.30
2024-01-04T15:18:51.663Z,0.30
2024-01-04T15:21:20.936Z,0.28
2024-01-04T15:23:49.993Z,0.47
2024-01-04T15:26:18.717Z,0.45
2024-01-04T15:28:47.228Z,0.40
2024-01-04T15:31:17.631Z,0.40
2024-01-04T15:33:46.341Z,0.50
2024-01-04T15:36:17.393Z,0.50
2024-01-04T15:38:47.083Z,0.40
2024-01-04T15:41:16.236Z,0.50
2024-01-04T15:43:45.406Z,0.40
2024-01-04T15:46:13.902Z,0.32
2024-01-04T15:48:43.804Z,0.30
2024-01-04T15:51:12.547Z,0.50
2024-01-04T15:53:41.052Z,0.50
2024-01-04T15:56:09.648Z,0.40
2024-01-04T15:58:38.120Z,0.30
2024-01-04T16:01:10.787Z,0.50
2024-01-04T16:03:40.570Z,0.50
2024-01-04T16:06:10.986Z,0.57
2024-01-04T16:08:39.968Z,0.55
2024-01-04T16:11:08.443Z,0.80
2024-01-04T16:13:37.040Z,2.53
2024-01-04T16:16:06.823Z,2.63
2024-01-04T16:18:35.426Z,1.50
2024-01-04T16:21:04.195Z,1.60
2024-01-04T16:23:34.021Z,2.00
2024-01-04T16:26:02.440Z,2.67
2024-01-04T16:28:31.152Z,1.95
2024-01-04T16:30:59.629Z,1.42
2024-01-04T16:33:28.793Z,3.70
2024-01-04T16:35:58.226Z,8.07
2024-01-04T16:38:26.648Z,11.15
2024-01-04T16:40:56.403Z,9.38
2024-01-04T16:43:26.964Z,8.02
2024-01-04T16:45:55.444Z,7.90
2024-01-04T16:48:24.187Z,8.52
2024-01-04T16:50:52.729Z,9.20
2024-01-04T16:53:21.395Z,5.18
2024-01-04T16:55:50.601Z,6.97
2024-01-04T16:58:20.413Z,5.18
2024-01-04T17:00:48.945Z,2.42
2024-01-04T17:03:17.329Z,2.22
2024-01-04T17:05:45.851Z,1.85
2024-01-04T17:08:14.394Z,1.63
2024-01-04T17:10:42.862Z,2.03
2024-01-04T17:13:11.426Z,2.60
2024-01-04T17:15:41.201Z,7.50
2024-01-04T17:18:09.775Z,17.60
2024-01-04T17:20:38.210Z,18.05
2024-01-04T17:23:06.581Z,13.48
2024-01-04T17:25:34.993Z,11.38
2024-01-04T17:28:03.425Z,11.45
2024-01-04T17:30:31.905Z,8.38
2024-01-04T17:33:01.887Z,5.97
2024-01-04T17:35:31.932Z,5.72
2024-01-04T17:38:00.441Z,5.72
2024-01-04T17:40:29.376Z,5.75
2024-01-04T17:42:58.158Z,6.80
2024-01-04T17:45:26.639Z,5.75
2024-01-04T17:47:55.285Z,5.30
2024-01-04T17:50:25.066Z,4.88
2024-01-04T17:52:53.450Z,5.18
2024-01-04T17:55:23.257Z,5.55
2024-01-04T17:57:51.740Z,6.25
2024-01-04T18:00:21.257Z,7.75
2024-01-04T18:02:49.888Z,5.85
2024-01-04T18:05:19.501Z,8.18
2024-01-04T18:07:49.352Z,9.98
2024-01-04T18:10:18.079Z,13.65
2024-01-04T18:12:47.811Z,16.55
2024-01-04T18:15:18.123Z,13.85
2024-01-04T18:17:46.983Z,15.30
2024-01-04T18:20:15.571Z,14.50
2024-01-04T18:22:44.095Z,13.98
2024-01-04T18:25:14.057Z,12.63
2024-01-04T18:27:42.577Z,13.88
2024-01-04T18:30:12.902Z,12.68
2024-01-04T18:32:41.801Z,10.70
2024-01-04T18:35:10.612Z,9.27
2024-01-04T18:37:39.000Z,8.70
2024-01-04T18:40:08.913Z,8.40
2024-01-04T18:42:38.788Z,8.65
2024-01-04T18:45:08.416Z,7.95
2024-01-04T18:47:37.565Z,8.25
2024-01-04T18:50:08.581Z,6.93
2024-01-04T18:52:37.526Z,7.63
2024-01-04T18:55:07.078Z,6.35
2024-01-04T18:57:35.829Z,6.50
2024-01-04T19:00:06.983Z,6.43
2024-01-04T19:02:35.752Z,5.90
2024-01-04T19:05:04.423Z,6.15
2024-01-04T19:07:32.907Z,6.03
2024-01-04T19:10:01.326Z,6.88
2024-01-04T19:12:29.889Z,6.60
2024-01-04T19:15:01.809Z,6.25
2024-01-04T19:17:37.153Z,6.00
2024-01-04T19:20:10.781Z,5.95
2024-01-04T19:22:39.456Z,5.68
2024-01-04T19:25:08.882Z,4.90
2024-01-04T19:27:37.472Z,4.97
2024-01-04T19:30:07.308Z,4.90
2024-01-04T19:32:37.282Z,5.15
2024-01-04T19:35:07.703Z,5.72
2024-01-04T19:37:36.698Z,5.07
2024-01-04T19:40:05.714Z,5.03
2024-01-04T19:42:34.176Z,4.88
2024-01-04T19:45:02.827Z,5.10
2024-01-04T19:47:31.458Z,5.07
2024-01-04T19:50:02.947Z,6.97
2024-01-04T19:52:31.419Z,12.85
2024-01-04T19:54:59.912Z,5.35
2024-01-04T19:57:28.512Z,4.80
2024-01-04T19:59:56.982Z,4.43
2024-01-04T20:02:28.881Z,5.32
2024-01-04T20:04:57.296Z,5.30
2024-01-04T20:07:27.132Z,5.20
2024-01-04T20:09:55.734Z,4.90
2024-01-04T20:12:24.492Z,4.60
2024-01-04T20:14:53.046Z,4.18
2024-01-04T20:17:21.493Z,4.68
2024-01-04T20:19:49.922Z,4.93
2024-01-04T20:22:18.639Z,4.68
2024-01-04T20:24:50.687Z,9.52
2024-01-04T20:27:19.241Z,11.05
2024-01-04T20:29:47.806Z,7.25
2024-01-04T20:32:17.189Z,6.50
2024-01-04T20:34:45.821Z,6.78
2024-01-04T20:37:15.076Z,6.07
2024-01-04T20:39:43.741Z,5.85
2024-01-04T20:42:13.638Z,9.13
2024-01-04T20:44:43.109Z,11.25
2024-01-04T20:47:11.564Z,4.97
2024-01-04T20:49:41.383Z,5.85
2024-01-04T20:52:10.038Z,6.97
2024-01-04T20:54:38.535Z,6.22
2024-01-04T20:57:07.118Z,6.97
2024-01-04T20:59:36.973Z,3.70
2024-01-04T21:02:05.726Z,2.05
2024-01-04T21:04:34.277Z,2.53
2024-01-04T21:07:03.076Z,2.50
2024-01-04T21:09:31.799Z,2.15
2024-01-04T21:12:00.458Z,2.58
2024-01-04T21:14:28.967Z,3.03
2024-01-04T21:16:59.544Z,3.47
2024-01-04T21:19:28.211Z,3.40
2024-01-04T21:21:57.056Z,3.67
2024-01-04T21:24:25.536Z,3.60
2024-01-04T21:26:54.174Z,3.72
2024-01-04T21:29:22.696Z,3.70
2024-01-04T21:31:51.078Z,2.83
2024-01-04T21:34:21.021Z,2.92
2024-01-04T21:36:49.820Z,3.60
2024-01-04T21:39:21.623Z,4.00
2024-01-04T21:41:50.429Z,3.13
2024-01-04T21:44:18.900Z,3.17
2024-01-04T21:46:50.960Z,11.38
2024-01-04T21:49:21.156Z,3.83
2024-01-04T21:51:49.827Z,3.17
2024-01-04T21:54:18.509Z,3.20
2024-01-04T21:56:47.076Z,2.72
2024-01-04T21:59:15.489Z,2.75
2024-01-04T22:01:43.998Z,2.88
2024-01-04T22:04:12.552Z,2.63
2024-01-04T22:06:43.937Z,2.58
2024-01-04T22:09:12.622Z,2.80
2024-01-04T22:11:41.793Z,2.58
2024-01-04T22:14:10.639Z,2.13
2024-01-04T22:16:41.600Z,1.40
2024-01-04T22:19:13.490Z,1.40
2024-01-04T22:21:43.649Z,2.13
2024-01-04T22:24:12.354Z,9.77
2024-01-04T22:26:41.819Z,7.15
2024-01-04T22:29:14.724Z,4.75
2024-01-04T22:31:43.375Z,2.75
2024-01-04T22:34:11.849Z,2.40
2024-01-04T22:36:40.726Z,2.10
2024-01-04T22:39:10.869Z,2.30
2024-01-04T22:41:39.317Z,2.20
2024-01-04T22:44:07.853Z,1.90
2024-01-04T22:46:36.517Z,2.05
2024-01-04T22:49:05.280Z,1.90
2024-01-04T22:51:33.880Z,2.25
2024-01-04T22:54:02.449Z,2.25
2024-01-04T22:56:32.166Z,2.10
2024-01-04T22:59:00.674Z,2.03
2024-01-04T23:01:29.227Z,2.40
2024-01-04T23:03:57.917Z,2.30
2024-01-04T23:06:27.652Z,2.33
2024-01-04T23:08:56.475Z,2.53
2024-01-04T23:11:25.126Z,2.40
2024-01-04T23:13:55.223Z,2.65
2024-01-04T23:16:23.673Z,2.10
2024-01-04T23:18:52.268Z,1.80
2024-01-04T23:21:20.767Z,1.90
2024-01-04T23:23:50.294Z,2.20
2024-01-04T23:26:18.923Z,1.80
2024-01-04T23:28:47.398Z,1.92
2024-01-04T23:31:17.299Z,1.40
2024-01-04T23:33:46.016Z,1.98
2024-01-04T23:36:15.572Z,1.73
2024-01-04T23:38:44.333Z,1.50
2024-01-04T23:41:12.757Z,1.30
2024-01-04T23:43:41.300Z,1.77
2024-01-04T23:46:09.697Z,1.50
2024-01-04T23:48:39.531Z,1.23
2024-01-04T23:51:08.186Z,1.20
2024-01-04T23:53:36.786Z,1.70
2024-01-04T23:56:05.682Z,1.48
2024-01-04T23:58:34.060Z,1.67
